createdAt,value
2023-05-09T00:00:48.599Z,36.05
2023-05-09T00:01:50.574Z,35.68
2023-05-09T00:02:54.323Z,35.68
2023-05-09T00:03:56.465Z,35.79
2023-05-09T00:04:58.360Z,35.63
2023-05-09T00:06:00.551Z,35.98
2023-05-09T00:07:02.668Z,35.50
2023-05-09T00:08:05.357Z,35.58
2023-05-09T00:09:07.281Z,35.67
2023-05-09T00:10:09.575Z,35.43
2023-05-09T00:11:11.603Z,35.32
2023-05-09T00:12:13.593Z,35.73
2023-05-09T00:13:15.449Z,35.98
2023-05-09T00:14:18.728Z,35.89
2023-05-09T00:15:20.668Z,35.79
2023-05-09T00:16:24.270Z,35.78
2023-05-09T00:17:26.840Z,35.62
2023-05-09T00:18:31.204Z,35.44
2023-05-09T00:19:33.752Z,35.38
2023-05-09T00:20:36.146Z,35.36
2023-05-09T00:21:38.050Z,35.55
2023-05-09T00:22:41.099Z,35.43
2023-05-09T00:23:43.261Z,35.70
2023-05-09T00:24:45.234Z,35.44
2023-05-09T00:25:47.049Z,35.38
2023-05-09T00:26:49.038Z,35.91
2023-05-09T00:27:50.999Z,35.79
2023-05-09T00:28:53.110Z,35.36
2023-05-09T00:29:55.148Z,35.35
2023-05-09T00:30:57.401Z,35.63
2023-05-09T00:31:59.324Z,35.52
2023-05-09T00:33:01.345Z,35.55
2023-05-09T00:34:03.293Z,35.29
2023-05-09T00:35:05.872Z,35.92
2023-05-09T00:36:08.068Z,35.30
2023-05-09T00:37:10.136Z,35.56
2023-05-09T00:38:12.964Z,35.64
2023-05-09T00:39:14.798Z,35.92
2023-05-09T00:40:16.695Z,35.38
2023-05-09T00:41:18.534Z,35.44
2023-05-09T00:42:20.432Z,35.74
2023-05-09T00:43:22.382Z,35.94
2023-05-09T00:44:24.673Z,35.57
2023-05-09T00:45:26.844Z,35.55
2023-05-09T00:46:28.957Z,35.28
2023-05-09T00:47:31.228Z,35.35
2023-05-09T00:48:33.093Z,35.59
2023-05-09T00:49:35.389Z,35.43
2023-05-09T00:50:37.795Z,35.75
2023-05-09T00:51:41.625Z,35.41
2023-05-09T00:52:44.056Z,35.30
2023-05-09T00:53:46.599Z,35.65
2023-05-09T00:54:50.047Z,35.70
2023-05-09T00:55:52.616Z,35.45
2023-05-09T00:56:54.547Z,35.60
2023-05-09T00:57:56.495Z,35.55
2023-05-09T00:58:58.946Z,35.58
2023-05-09T01:00:01.891Z,35.29
2023-05-09T01:01:04.652Z,35.64
2023-05-09T01:02:06.574Z,35.66
2023-05-09T01:03:09.201Z,35.75
2023-05-09T01:04:14.000Z,35.79
2023-05-09T01:05:16.548Z,35.36
2023-05-09T01:06:30.123Z,35.19
2023-05-09T01:08:13.365Z,35.14
2023-05-09T01:09:42.742Z,35.68
2023-05-09T01:11:34.402Z,35.60
2023-05-09T01:12:51.361Z,35.37
2023-05-09T01:14:14.669Z,35.18
2023-05-09T01:15:31.499Z,35.60
2023-05-09T01:16:46.026Z,35.38
2023-05-09T01:17:59.841Z,35.80
2023-05-09T01:19:14.709Z,35.21
2023-05-09T01:20:22.619Z,35.36
2023-05-09T01:21:29.345Z,35.48
2023-05-09T01:22:36.714Z,35.23
2023-05-09T01:23:44.346Z,35.75
2023-05-09T01:25:14.425Z,35.90
2023-05-09T01:27:26.803Z,35.29
2023-05-09T01:28:44.693Z,35.88
2023-05-09T01:29:51.647Z,35.46
2023-05-09T01:30:55.613Z,35.45
2023-05-09T01:32:00.052Z,35.62
2023-05-09T01:33:08.782Z,35.66
2023-05-09T01:34:15.304Z,35.66
2023-05-09T01:35:20.070Z,35.58
2023-05-09T01:36:23.367Z,35.62
2023-05-09T01:37:39.653Z,35.88
2023-05-09T01:38:44.654Z,35.65
2023-05-09T01:39:50.449Z,35.77
2023-05-09T01:40:55.448Z,35.67
2023-05-09T01:42:02.393Z,35.76
2023-05-09T01:43:09.960Z,35.29
2023-05-09T01:44:15.344Z,35.32
2023-05-09T01:45:19.994Z,35.27
2023-05-09T01:46:22.947Z,35.84
2023-05-09T01:47:27.053Z,35.80
2023-05-09T01:48:31.800Z,35.81
2023-05-09T01:49:37.723Z,35.31
2023-05-09T01:50:43.527Z,35.54
2023-05-09T01:51:47.954Z,35.80
2023-05-09T01:52:55.012Z,35.70
2023-05-09T01:53:58.998Z,35.26
2023-05-09T01:55:02.479Z,35.44
2023-05-09T01:56:07.861Z,35.35
2023-05-09T01:57:12.012Z,35.75
2023-05-09T01:58:15.936Z,35.84
2023-05-09T01:59:19.735Z,35.41
2023-05-09T02:00:24.020Z,35.30
2023-05-09T02:01:26.838Z,35.52
2023-05-09T02:02:29.501Z,35.73
2023-05-09T02:03:34.090Z,36.00
2023-05-09T02:04:37.130Z,35.44
2023-05-09T02:05:40.316Z,35.45
2023-05-09T02:06:45.025Z,35.75
2023-05-09T02:07:48.849Z,35.63
2023-05-09T02:08:51.660Z,35.69
2023-05-09T02:09:58.203Z,35.44
2023-05-09T02:11:00.323Z,35.76
2023-05-09T02:12:04.457Z,35.16
2023-05-09T02:13:07.479Z,35.65
2023-05-09T02:14:09.974Z,35.27
2023-05-09T02:15:12.287Z,35.32
2023-05-09T02:16:15.404Z,35.59
2023-05-09T02:17:17.904Z,35.70
2023-05-09T02:18:19.771Z,35.59
2023-05-09T02:19:21.654Z,35.76
2023-05-09T02:20:23.786Z,35.73
2023-05-09T02:21:26.781Z,35.66
2023-05-09T02:22:30.493Z,35.83
2023-05-09T02:23:32.437Z,35.86
2023-05-09T02:24:34.512Z,35.72
2023-05-09T02:25:38.564Z,35.91
2023-05-09T02:26:41.490Z,35.35
2023-05-09T02:27:47.466Z,35.39
2023-05-09T02:28:50.937Z,36.04
2023-05-09T02:29:57.635Z,35.57
2023-05-09T02:31:06.445Z,35.60
2023-05-09T02:32:12.587Z,35.67
2023-05-09T02:33:14.628Z,35.38
2023-05-09T02:34:17.720Z,35.33
2023-05-09T02:35:21.865Z,35.43
2023-05-09T02:36:24.496Z,35.54
2023-05-09T02:37:27.840Z,35.72
2023-05-09T02:38:29.665Z,35.73
2023-05-09T02:39:32.374Z,35.65
2023-05-09T02:40:34.657Z,35.21
2023-05-09T02:41:36.765Z,35.56
2023-05-09T02:42:38.741Z,35.41
2023-05-09T02:43:40.674Z,35.30
2023-05-09T02:44:42.549Z,35.27
2023-05-09T02:45:44.690Z,35.28
2023-05-09T02:46:46.662Z,35.73
2023-05-09T02:47:48.596Z,35.23
2023-05-09T02:48:51.407Z,35.30
2023-05-09T02:49:53.240Z,35.69
2023-05-09T02:50:55.207Z,35.62
2023-05-09T02:51:57.215Z,35.54
2023-05-09T02:52:59.146Z,35.86
2023-05-09T02:54:00.893Z,35.17
2023-05-09T02:55:04.127Z,35.75
2023-05-09T02:56:06.121Z,35.59
2023-05-09T02:57:08.044Z,35.34
2023-05-09T02:58:14.723Z,35.47
2023-05-09T02:59:19.972Z,35.71
2023-05-09T03:00:22.282Z,35.59
2023-05-09T03:01:24.223Z,35.64
2023-05-09T03:02:26.244Z,35.42
2023-05-09T03:03:28.303Z,35.41
2023-05-09T03:04:30.468Z,35.34
2023-05-09T03:05:32.349Z,35.18
2023-05-09T03:06:34.269Z,35.29
2023-05-09T03:07:36.201Z,35.45
2023-05-09T03:08:38.099Z,35.24
2023-05-09T03:09:41.188Z,35.39
2023-05-09T03:10:43.246Z,35.06
2023-05-09T03:11:45.082Z,35.84
2023-05-09T03:12:47.773Z,35.34
2023-05-09T03:13:49.731Z,35.56
2023-05-09T03:14:51.610Z,35.07
2023-05-09T03:15:53.588Z,35.20
2023-05-09T03:16:55.766Z,35.25
2023-05-09T03:17:58.021Z,35.52
2023-05-09T03:18:59.963Z,35.24
2023-05-09T03:20:04.304Z,35.36
2023-05-09T03:21:06.554Z,35.58
2023-05-09T03:22:08.549Z,35.26
2023-05-09T03:23:10.600Z,35.65
2023-05-09T03:24:12.503Z,35.60
2023-05-09T03:25:14.972Z,35.57
2023-05-09T03:26:16.970Z,35.67
2023-05-09T03:27:20.034Z,35.20
2023-05-09T03:28:21.957Z,35.35
2023-05-09T03:29:23.986Z,35.33
2023-05-09T03:30:27.387Z,35.48
2023-05-09T03:31:29.358Z,35.50
2023-05-09T03:32:31.371Z,35.29
2023-05-09T03:33:33.209Z,35.24
2023-05-09T03:34:35.582Z,35.50
2023-05-09T03:35:37.452Z,35.36
2023-05-09T03:36:39.359Z,35.59
2023-05-09T03:37:41.272Z,35.20
2023-05-09T03:38:43.564Z,35.34
2023-05-09T03:39:45.506Z,35.29
2023-05-09T03:40:47.496Z,35.19
2023-05-09T03:41:49.460Z,35.38
2023-05-09T03:42:51.295Z,35.14
2023-05-09T03:43:53.186Z,35.52
2023-05-09T03:44:55.314Z,35.34
2023-05-09T03:45:57.209Z,35.27
2023-05-09T03:46:59.229Z,35.06
2023-05-09T03:48:01.235Z,35.64
2023-05-09T03:49:04.415Z,35.67
2023-05-09T03:50:07.415Z,35.31
2023-05-09T03:51:09.363Z,35.48
2023-05-09T03:52:11.227Z,35.16
2023-05-09T03:53:13.175Z,35.31
2023-05-09T03:54:15.330Z,35.56
2023-05-09T03:55:17.198Z,35.61
2023-05-09T03:56:19.164Z,35.71
2023-05-09T03:57:21.284Z,35.04
2023-05-09T03:58:23.128Z,35.47
2023-05-09T03:59:25.315Z,35.30
2023-05-09T04:00:27.325Z,35.57
2023-05-09T04:01:29.247Z,35.18
2023-05-09T04:02:31.614Z,35.26
2023-05-09T04:03:33.864Z,35.39
2023-05-09T04:04:36.080Z,35.57
2023-05-09T04:05:38.196Z,35.53
2023-05-09T04:06:40.154Z,35.31
2023-05-09T04:07:42.661Z,35.24
2023-05-09T04:08:45.399Z,35.70
2023-05-09T04:09:47.454Z,35.43
2023-05-09T04:10:50.946Z,35.35
2023-05-09T04:11:52.866Z,35.28
2023-05-09T04:12:55.034Z,35.31
2023-05-09T04:13:57.052Z,35.44
2023-05-09T04:14:58.992Z,35.27
2023-05-09T04:16:01.598Z,35.51
2023-05-09T04:17:03.706Z,35.24
2023-05-09T04:18:06.270Z,35.54
2023-05-09T04:19:08.275Z,35.50
2023-05-09T04:20:11.649Z,35.33
2023-05-09T04:21:13.631Z,35.21
2023-05-09T04:22:15.508Z,35.36
2023-05-09T04:23:17.382Z,35.09
2023-05-09T04:24:19.531Z,35.25
2023-05-09T04:25:21.420Z,35.38
2023-05-09T04:26:24.770Z,35.58
2023-05-09T04:27:28.294Z,35.35
2023-05-09T04:28:30.314Z,35.11
2023-05-09T04:29:32.410Z,35.38
2023-05-09T04:30:34.329Z,35.42
2023-05-09T04:31:36.261Z,35.24
2023-05-09T04:32:38.945Z,35.38
2023-05-09T04:33:41.213Z,35.40
2023-05-09T04:34:43.171Z,35.54
2023-05-09T04:35:45.026Z,35.22
2023-05-09T04:36:46.917Z,35.07
2023-05-09T04:37:48.985Z,35.31
2023-05-09T04:38:51.129Z,35.19
2023-05-09T04:39:54.289Z,35.43
2023-05-09T04:40:56.188Z,35.35
2023-05-09T04:41:58.090Z,35.44
2023-05-09T04:43:00.025Z,35.35
2023-05-09T04:44:02.025Z,35.61
2023-05-09T04:45:04.866Z,35.73
2023-05-09T04:46:07.790Z,35.42
2023-05-09T04:47:09.688Z,35.32
2023-05-09T04:48:11.907Z,35.41
2023-05-09T04:49:13.847Z,35.26
2023-05-09T04:50:16.686Z,35.48
2023-05-09T04:51:19.291Z,35.44
2023-05-09T04:52:21.756Z,35.67
2023-05-09T04:53:23.598Z,35.29
2023-05-09T04:54:26.141Z,35.66
2023-05-09T04:55:28.091Z,35.21
2023-05-09T04:56:30.149Z,35.03
2023-05-09T04:57:32.098Z,35.24
2023-05-09T04:58:38.200Z,35.32
2023-05-09T04:59:40.134Z,35.31
2023-05-09T05:00:42.171Z,35.59
2023-05-09T05:01:44.335Z,35.52
2023-05-09T05:02:46.711Z,35.44
2023-05-09T05:03:48.561Z,35.37
2023-05-09T05:04:50.572Z,35.41
2023-05-09T05:05:52.561Z,35.58
2023-05-09T05:06:54.985Z,35.62
2023-05-09T05:07:56.948Z,35.59
2023-05-09T05:08:58.777Z,35.40
2023-05-09T05:10:00.736Z,35.31
2023-05-09T05:11:02.624Z,35.64
2023-05-09T05:13:09.252Z,35.49
2023-05-09T05:14:11.288Z,35.29
2023-05-09T05:15:13.671Z,35.42
2023-05-09T05:16:15.751Z,35.23
2023-05-09T05:17:18.435Z,35.55
2023-05-09T05:18:20.365Z,35.54
2023-05-09T05:19:22.236Z,35.49
2023-05-09T05:20:24.099Z,35.61
2023-05-09T05:21:25.934Z,35.47
2023-05-09T05:22:28.015Z,35.67
2023-05-09T05:23:30.068Z,35.61
2023-05-09T05:24:31.945Z,35.68
2023-05-09T05:25:33.957Z,35.30
2023-05-09T05:26:35.901Z,35.45
2023-05-09T05:27:37.802Z,35.71
2023-05-09T05:28:39.712Z,35.57
2023-05-09T05:29:41.666Z,35.47
2023-05-09T05:30:43.645Z,35.72
2023-05-09T05:31:45.552Z,35.54
2023-05-09T05:32:47.863Z,35.59
2023-05-09T05:33:49.825Z,35.44
2023-05-09T05:34:51.966Z,35.32
2023-05-09T05:35:53.986Z,35.35
2023-05-09T05:36:55.931Z,35.49
2023-05-09T05:37:57.987Z,35.52
2023-05-09T05:38:59.890Z,35.44
2023-05-09T05:40:01.817Z,35.82
2023-05-09T05:41:03.733Z,35.41
2023-05-09T05:42:05.718Z,35.61
2023-05-09T05:43:07.595Z,35.59
2023-05-09T05:44:09.497Z,35.60
2023-05-09T05:45:11.704Z,35.50
2023-05-09T05:46:13.570Z,35.44
2023-05-09T05:47:15.458Z,35.47
2023-05-09T05:48:17.676Z,35.64
2023-05-09T05:49:19.630Z,35.42
2023-05-09T05:50:21.471Z,35.46
2023-05-09T05:51:23.332Z,35.48
2023-05-09T05:52:26.357Z,35.33
2023-05-09T05:53:29.832Z,35.69
2023-05-09T05:54:32.680Z,35.44
2023-05-09T05:55:34.535Z,35.51
2023-05-09T05:56:36.507Z,35.60
2023-05-09T05:57:39.134Z,35.37
2023-05-09T05:58:41.156Z,35.28
2023-05-09T05:59:43.023Z,35.31
2023-05-09T06:00:44.931Z,35.21
2023-05-09T06:01:46.845Z,35.24
2023-05-09T06:02:48.999Z,35.47
2023-05-09T06:03:54.999Z,35.40
2023-05-09T06:04:56.909Z,35.24
2023-05-09T06:05:59.167Z,35.23
2023-05-09T06:07:01.086Z,35.51
2023-05-09T06:08:03.138Z,35.35
2023-05-09T06:09:05.120Z,35.34
2023-05-09T06:10:08.452Z,35.29
2023-05-09T06:11:10.480Z,35.78
2023-05-09T06:12:16.608Z,35.36
2023-05-09T06:13:18.598Z,35.25
2023-05-09T06:14:20.626Z,35.65
2023-05-09T06:15:22.834Z,35.40
2023-05-09T06:16:24.790Z,35.14
2023-05-09T06:17:27.142Z,35.85
2023-05-09T06:18:29.526Z,35.68
2023-05-09T06:19:31.463Z,35.57
2023-05-09T06:20:33.422Z,35.57
2023-05-09T06:21:35.197Z,35.58
2023-05-09T06:22:37.241Z,35.50
2023-05-09T06:23:44.667Z,35.84
2023-05-09T06:24:52.687Z,35.46
2023-05-09T06:25:54.572Z,35.42
2023-05-09T06:26:56.536Z,35.93
2023-05-09T06:27:58.425Z,35.77
2023-05-09T06:29:00.303Z,35.72
2023-05-09T06:30:08.341Z,35.60
2023-05-09T06:31:16.904Z,35.59
2023-05-09T06:32:19.463Z,35.61
2023-05-09T06:33:21.416Z,35.75
2023-05-09T06:34:23.303Z,35.77
2023-05-09T06:35:25.310Z,35.85
2023-05-09T06:36:27.314Z,35.83
2023-05-09T06:37:34.243Z,35.77
2023-05-09T06:38:36.293Z,35.62
2023-05-09T06:39:38.204Z,35.70
2023-05-09T06:40:40.030Z,35.53
2023-05-09T06:41:42.064Z,35.96
2023-05-09T06:42:44.635Z,35.84
2023-05-09T06:43:46.646Z,35.84
2023-05-09T06:44:48.625Z,35.86
2023-05-09T06:45:50.764Z,35.77
2023-05-09T06:46:52.776Z,35.96
2023-05-09T06:47:54.763Z,35.57
2023-05-09T06:48:56.662Z,35.60
2023-05-09T06:49:58.532Z,35.68
2023-05-09T06:51:00.640Z,35.74
2023-05-09T06:52:02.559Z,35.98
2023-05-09T06:53:04.399Z,36.00
2023-05-09T06:54:06.306Z,35.82
2023-05-09T06:55:09.441Z,35.80
2023-05-09T06:56:12.036Z,35.85
2023-05-09T06:57:13.862Z,35.81
2023-05-09T06:58:15.839Z,35.83
2023-05-09T06:59:18.098Z,35.83
2023-05-09T07:00:20.610Z,35.75
2023-05-09T07:01:22.739Z,36.08
2023-05-09T07:02:24.683Z,35.92
2023-05-09T07:03:26.862Z,36.49
2023-05-09T07:04:28.734Z,35.88
2023-05-09T07:05:30.670Z,36.08
2023-05-09T07:06:33.031Z,35.93
2023-05-09T07:07:34.874Z,36.03
2023-05-09T07:08:36.759Z,35.84
2023-05-09T07:09:38.662Z,35.89
2023-05-09T07:10:40.700Z,35.76
2023-05-09T07:11:42.608Z,35.88
2023-05-09T07:12:44.441Z,36.03
2023-05-09T07:13:46.384Z,35.99
2023-05-09T07:14:48.291Z,36.09
2023-05-09T07:15:50.453Z,36.05
2023-05-09T07:16:52.521Z,36.01
2023-05-09T07:17:54.601Z,35.84
2023-05-09T07:18:56.604Z,36.12
2023-05-09T07:19:58.440Z,35.95
2023-05-09T07:21:00.445Z,35.79
2023-05-09T07:22:02.312Z,35.89
2023-05-09T07:23:06.154Z,35.90
2023-05-09T07:24:08.120Z,36.02
2023-05-09T07:25:10.409Z,35.84
2023-05-09T07:26:12.272Z,35.83
2023-05-09T07:27:14.305Z,35.72
2023-05-09T07:28:16.265Z,36.00
2023-05-09T07:29:20.201Z,36.06
2023-05-09T07:30:22.594Z,35.75
2023-05-09T07:31:24.603Z,36.06
2023-05-09T07:32:28.851Z,36.07
2023-05-09T07:33:31.101Z,35.83
2023-05-09T07:34:33.008Z,36.00
2023-05-09T07:35:34.938Z,35.83
2023-05-09T07:37:40.688Z,35.83
2023-05-09T07:38:42.553Z,36.04
2023-05-09T07:39:44.573Z,35.70
2023-05-09T07:40:46.748Z,35.72
2023-05-09T07:41:48.934Z,36.07
2023-05-09T07:42:51.638Z,35.73
2023-05-09T07:43:53.472Z,35.83
2023-05-09T07:44:55.434Z,35.86
2023-05-09T07:45:57.654Z,35.68
2023-05-09T07:47:01.186Z,35.60
2023-05-09T07:48:03.236Z,35.58
2023-05-09T07:49:05.156Z,35.75
2023-05-09T07:50:07.861Z,36.03
2023-05-09T07:51:09.728Z,35.67
2023-05-09T07:52:11.918Z,36.02
2023-05-09T07:53:13.841Z,35.93
2023-05-09T07:54:15.719Z,35.84
2023-05-09T07:55:17.998Z,35.94
2023-05-09T07:56:20.087Z,35.79
2023-05-09T07:57:22.803Z,35.75
2023-05-09T07:58:24.632Z,35.90
2023-05-09T07:59:26.647Z,35.96
2023-05-09T08:00:28.496Z,35.91
2023-05-09T08:01:30.686Z,35.81
2023-05-09T08:02:33.033Z,35.88
2023-05-09T08:03:35.175Z,35.89
2023-05-09T08:04:39.088Z,35.73
2023-05-09T08:05:41.179Z,35.87
2023-05-09T08:06:43.135Z,35.85
2023-05-09T08:07:45.355Z,36.04
2023-05-09T08:08:47.606Z,36.03
2023-05-09T08:09:49.692Z,36.11
2023-05-09T08:10:51.675Z,35.68
2023-05-09T08:11:53.839Z,35.92
2023-05-09T08:12:55.751Z,35.56
2023-05-09T08:13:57.673Z,35.82
2023-05-09T08:14:59.810Z,35.87
2023-05-09T08:16:02.228Z,36.07
2023-05-09T08:17:04.059Z,36.02
2023-05-09T08:18:06.427Z,35.91
2023-05-09T08:19:08.375Z,35.70
2023-05-09T08:20:11.474Z,35.55
2023-05-09T08:21:13.505Z,35.91
2023-05-09T08:22:19.686Z,36.00
2023-05-09T08:23:21.692Z,35.66
2023-05-09T08:24:23.664Z,35.62
2023-05-09T08:25:25.715Z,35.55
2023-05-09T08:26:27.906Z,36.04
2023-05-09T08:27:29.804Z,35.79
2023-05-09T08:28:31.754Z,35.43
2023-05-09T08:29:33.565Z,35.76
2023-05-09T08:30:35.824Z,35.51
2023-05-09T08:31:37.922Z,35.67
2023-05-09T08:32:40.105Z,35.59
2023-05-09T08:33:42.171Z,35.51
2023-05-09T08:34:44.044Z,35.45
2023-05-09T08:35:50.744Z,35.68
2023-05-09T08:36:53.293Z,35.63
2023-05-09T08:37:55.195Z,35.92
2023-05-09T08:38:57.068Z,35.99
2023-05-09T08:39:58.964Z,35.46
2023-05-09T08:41:01.929Z,35.95
2023-05-09T08:42:04.138Z,35.63
2023-05-09T08:43:08.578Z,35.49
2023-05-09T08:44:11.050Z,35.47
2023-05-09T08:45:15.126Z,35.76
2023-05-09T08:46:21.998Z,35.47
2023-05-09T08:47:25.728Z,35.56
2023-05-09T08:48:29.166Z,34.91
2023-05-09T08:49:31.305Z,35.46
2023-05-09T08:50:35.537Z,35.47
2023-05-09T08:51:39.788Z,35.12
2023-05-09T08:52:42.570Z,35.15
2023-05-09T08:53:44.823Z,35.23
2023-05-09T08:54:47.214Z,34.65
2023-05-09T08:55:53.304Z,34.66
2023-05-09T08:56:55.529Z,35.04
2023-05-09T08:57:58.902Z,34.90
2023-05-09T08:59:01.084Z,35.28
2023-05-09T09:00:06.493Z,34.82
2023-05-09T09:01:09.998Z,35.14
2023-05-09T09:02:14.906Z,35.05
2023-05-09T09:03:18.399Z,34.71
2023-05-09T09:04:20.548Z,35.33
2023-05-09T09:05:39.410Z,34.89
2023-05-09T09:06:43.780Z,34.72
2023-05-09T09:07:46.755Z,35.09
2023-05-09T09:08:50.467Z,34.81
2023-05-09T09:09:54.844Z,35.02
2023-05-09T09:10:56.900Z,34.57
2023-05-09T09:11:59.316Z,34.62
2023-05-09T09:13:04.946Z,34.63
2023-05-09T09:14:22.880Z,35.10
2023-05-09T09:15:30.429Z,34.48
2023-05-09T09:16:35.756Z,34.72
2023-05-09T09:17:42.980Z,34.78
2023-05-09T09:18:46.530Z,34.87
2023-05-09T09:19:53.973Z,35.05
2023-05-09T09:21:11.754Z,34.69
2023-05-09T09:22:18.367Z,34.88
2023-05-09T09:23:25.911Z,34.53
2023-05-09T09:24:28.636Z,34.82
2023-05-09T09:25:30.610Z,34.59
2023-05-09T09:26:32.443Z,34.80
2023-05-09T09:27:35.604Z,34.89
2023-05-09T09:28:37.915Z,35.13
2023-05-09T09:29:39.892Z,34.93
2023-05-09T09:30:48.501Z,34.67
2023-05-09T09:31:57.153Z,34.51
2023-05-09T09:33:00.447Z,34.59
2023-05-09T09:34:03.511Z,35.05
2023-05-09T09:35:11.092Z,34.55
2023-05-09T09:36:13.796Z,34.57
2023-05-09T09:37:23.324Z,34.92
2023-05-09T09:38:26.746Z,34.45
2023-05-09T09:39:28.541Z,34.65
2023-05-09T09:40:30.413Z,34.61
2023-05-09T09:41:39.817Z,34.98
2023-05-09T09:42:46.823Z,35.04
2023-05-09T09:43:48.645Z,35.08
2023-05-09T09:45:02.535Z,34.64
2023-05-09T09:46:06.522Z,34.48
2023-05-09T09:47:11.197Z,34.78
2023-05-09T09:48:13.165Z,34.79
2023-05-09T09:49:18.242Z,34.99
2023-05-09T09:50:23.497Z,34.45
2023-05-09T09:51:29.101Z,34.96
2023-05-09T09:52:30.935Z,34.79
2023-05-09T09:53:43.279Z,34.41
2023-05-09T09:54:45.336Z,34.77
2023-05-09T09:55:52.194Z,34.84
2023-05-09T09:56:55.270Z,34.74
2023-05-09T09:57:57.303Z,34.39
2023-05-09T09:59:15.625Z,34.72
2023-05-09T10:00:24.758Z,34.16
2023-05-09T10:01:26.851Z,34.66
2023-05-09T10:02:29.107Z,34.81
2023-05-09T10:03:41.532Z,34.36
2023-05-09T10:04:44.394Z,34.64
2023-05-09T10:05:46.914Z,34.72
2023-05-09T10:07:01.033Z,34.67
2023-05-09T10:08:05.098Z,34.51
2023-05-09T10:09:06.994Z,34.12
2023-05-09T10:10:09.726Z,34.38
2023-05-09T10:11:12.007Z,34.57
2023-05-09T10:12:18.094Z,34.15
2023-05-09T10:13:21.471Z,34.08
2023-05-09T10:14:26.611Z,34.62
2023-05-09T10:15:41.414Z,34.55
2023-05-09T10:16:56.173Z,34.62
2023-05-09T10:18:01.684Z,34.51
2023-05-09T10:19:05.472Z,33.99
2023-05-09T10:20:09.988Z,34.17
2023-05-09T10:21:15.831Z,34.41
2023-05-09T10:22:19.599Z,34.02
2023-05-09T10:23:24.025Z,34.40
2023-05-09T10:24:47.038Z,34.29
2023-05-09T10:26:09.008Z,34.50
2023-05-09T10:27:13.717Z,33.85
2023-05-09T10:28:21.248Z,34.14
2023-05-09T10:29:27.480Z,33.99
2023-05-09T10:30:40.052Z,34.16
2023-05-09T10:31:45.055Z,33.88
2023-05-09T10:33:08.574Z,34.18
2023-05-09T10:34:13.081Z,34.19
2023-05-09T10:35:18.288Z,34.00
2023-05-09T10:36:23.755Z,34.01
2023-05-09T10:37:26.627Z,34.37
2023-05-09T10:38:30.735Z,33.91
2023-05-09T10:39:33.192Z,34.34
2023-05-09T10:40:35.648Z,34.38
2023-05-09T10:41:39.943Z,34.02
2023-05-09T10:42:44.125Z,33.72
2023-05-09T10:43:46.166Z,33.99
2023-05-09T10:44:48.260Z,34.20
2023-05-09T10:45:51.774Z,33.94
2023-05-09T10:46:54.543Z,33.72
2023-05-09T10:47:58.170Z,34.23
2023-05-09T10:49:01.522Z,33.82
2023-05-09T10:50:04.629Z,34.10
2023-05-09T10:51:07.987Z,33.77
2023-05-09T10:52:09.841Z,33.77
2023-05-09T10:53:14.132Z,33.69
2023-05-09T10:54:33.386Z,33.50
2023-05-09T10:55:47.560Z,33.65
2023-05-09T10:56:49.507Z,33.65
2023-05-09T10:57:55.180Z,33.97
2023-05-09T10:58:57.959Z,33.68
2023-05-09T11:00:00.524Z,33.49
2023-05-09T11:01:05.080Z,33.90
2023-05-09T11:02:19.069Z,33.95
2023-05-09T11:03:21.550Z,33.51
2023-05-09T11:04:23.451Z,34.02
2023-05-09T11:05:25.463Z,33.22
2023-05-09T11:06:55.117Z,33.68
2023-05-09T11:08:33.250Z,33.42
2023-05-09T11:09:39.055Z,33.31
2023-05-09T11:10:44.207Z,33.52
2023-05-09T11:11:54.505Z,33.70
2023-05-09T11:13:01.078Z,33.42
2023-05-09T11:14:04.160Z,33.43
2023-05-09T11:15:08.098Z,33.71
2023-05-09T11:16:12.088Z,33.43
2023-05-09T11:17:23.050Z,33.44
2023-05-09T11:18:25.304Z,33.69
2023-05-09T11:19:47.655Z,33.34
2023-05-09T11:20:51.395Z,32.98
2023-05-09T11:22:12.439Z,33.36
2023-05-09T11:23:19.024Z,33.46
2023-05-09T11:24:23.154Z,33.42
2023-05-09T11:25:29.762Z,33.27
2023-05-09T11:26:32.890Z,33.37
2023-05-09T11:27:48.024Z,33.72
2023-05-09T11:28:54.409Z,33.19
2023-05-09T11:29:59.184Z,33.72
2023-05-09T11:31:12.070Z,33.06
2023-05-09T11:32:15.884Z,33.64
2023-05-09T11:33:28.651Z,33.23
2023-05-09T11:34:30.665Z,33.09
2023-05-09T11:35:36.878Z,33.73
2023-05-09T11:36:48.081Z,33.67
2023-05-09T11:38:09.419Z,33.25
2023-05-09T11:39:11.867Z,33.55
2023-05-09T11:40:17.282Z,33.74
2023-05-09T11:41:19.630Z,33.22
2023-05-09T11:42:24.323Z,33.81
2023-05-09T11:43:26.614Z,33.56
2023-05-09T11:44:30.929Z,33.86
2023-05-09T11:45:33.922Z,33.42
2023-05-09T11:46:36.976Z,33.39
2023-05-09T11:47:39.559Z,33.17
2023-05-09T11:48:44.218Z,33.48
2023-05-09T11:49:46.110Z,33.38
2023-05-09T11:50:49.602Z,33.52
2023-05-09T11:51:51.545Z,33.63
2023-05-09T11:52:55.858Z,32.95
2023-05-09T11:53:57.731Z,33.01
2023-05-09T11:54:59.706Z,33.36
2023-05-09T11:56:06.292Z,33.23
2023-05-09T11:57:08.517Z,32.94
2023-05-09T11:58:10.597Z,32.77
2023-05-09T11:59:14.724Z,33.16
2023-05-09T12:00:23.468Z,32.95
2023-05-09T12:01:25.675Z,32.97
2023-05-09T12:02:28.535Z,32.36
2023-05-09T12:03:30.961Z,32.19
2023-05-09T12:04:34.294Z,32.38
2023-05-09T12:05:39.556Z,31.93
2023-05-09T12:06:47.432Z,32.40
2023-05-09T12:07:50.675Z,32.23
2023-05-09T12:08:55.868Z,32.23
2023-05-09T12:09:57.816Z,32.12
2023-05-09T12:11:09.525Z,32.30
2023-05-09T12:12:14.845Z,31.87
2023-05-09T12:13:18.006Z,31.82
2023-05-09T12:14:34.804Z,31.66
2023-05-09T12:15:38.042Z,31.88
2023-05-09T12:16:46.749Z,31.76
2023-05-09T12:18:02.496Z,32.17
2023-05-09T12:19:05.566Z,31.91
2023-05-09T12:20:09.441Z,31.86
2023-05-09T12:21:12.172Z,31.38
2023-05-09T12:22:14.231Z,32.00
2023-05-09T12:23:17.037Z,31.78
2023-05-09T12:24:22.130Z,31.67
2023-05-09T12:25:23.981Z,32.17
2023-05-09T12:26:27.061Z,31.46
2023-05-09T12:27:29.909Z,31.77
2023-05-09T12:28:32.297Z,31.26
2023-05-09T12:29:34.988Z,31.11
2023-05-09T12:30:37.289Z,31.34
2023-05-09T12:31:39.583Z,31.37
2023-05-09T12:32:42.776Z,31.30
2023-05-09T12:33:44.848Z,31.28
2023-05-09T12:34:48.500Z,31.57
2023-05-09T12:36:13.870Z,31.27
2023-05-09T12:37:18.772Z,31.49
2023-05-09T12:38:24.512Z,31.82
2023-05-09T12:39:26.751Z,31.76
2023-05-09T12:40:28.575Z,31.84
2023-05-09T12:41:39.254Z,31.30
2023-05-09T12:42:46.478Z,31.73
2023-05-09T12:43:51.027Z,31.39
2023-05-09T12:44:53.670Z,31.42
2023-05-09T12:45:55.553Z,31.78
2023-05-09T12:47:04.913Z,31.25
2023-05-09T12:48:09.262Z,31.32
2023-05-09T12:49:22.066Z,31.54
2023-05-09T12:50:35.862Z,31.23
2023-05-09T12:51:38.114Z,30.74
2023-05-09T12:52:58.481Z,31.10
2023-05-09T12:54:05.099Z,31.08
2023-05-09T12:55:09.709Z,31.12
2023-05-09T12:56:19.016Z,30.81
2023-05-09T12:57:29.387Z,30.86
2023-05-09T12:58:34.086Z,31.04
2023-05-09T12:59:35.947Z,30.81
2023-05-09T13:00:46.069Z,31.03
2023-05-09T13:01:56.750Z,31.37
2023-05-09T13:02:59.396Z,31.25
2023-05-09T13:04:07.473Z,31.20
2023-05-09T13:05:16.001Z,31.38
2023-05-09T13:06:18.240Z,31.12
2023-05-09T13:07:20.016Z,31.27
2023-05-09T13:08:22.186Z,31.61
2023-05-09T13:09:26.309Z,31.90
2023-05-09T13:10:30.877Z,31.44
2023-05-09T13:11:33.122Z,31.69
2023-05-09T13:12:34.947Z,31.33
2023-05-09T13:13:37.791Z,31.82
2023-05-09T13:14:40.619Z,31.26
2023-05-09T13:15:44.321Z,31.16
2023-05-09T13:16:46.506Z,31.26
2023-05-09T13:17:51.388Z,31.45
2023-05-09T13:18:53.336Z,31.76
2023-05-09T13:19:55.467Z,31.41
2023-05-09T13:20:57.423Z,31.23
2023-05-09T13:21:59.316Z,31.49
2023-05-09T13:23:01.651Z,31.50
2023-05-09T13:24:07.090Z,31.30
2023-05-09T13:25:09.640Z,31.06
2023-05-09T13:26:11.642Z,31.64
2023-05-09T13:27:13.554Z,31.25
2023-05-09T13:28:15.459Z,31.54
2023-05-09T13:29:17.444Z,31.24
2023-05-09T13:30:19.781Z,31.49
2023-05-09T13:31:22.743Z,31.22
2023-05-09T13:32:27.764Z,31.05
2023-05-09T13:33:29.933Z,31.02
2023-05-09T13:34:31.865Z,30.79
2023-05-09T13:35:33.781Z,31.50
2023-05-09T13:36:35.662Z,31.05
2023-05-09T13:37:37.576Z,31.13
2023-05-09T13:38:40.860Z,31.04
2023-05-09T13:39:43.043Z,31.04
2023-05-09T13:40:44.843Z,31.17
2023-05-09T13:41:48.552Z,31.40
2023-05-09T13:42:50.505Z,30.88
2023-05-09T13:43:52.394Z,31.47
2023-05-09T13:44:54.384Z,31.45
2023-05-09T13:45:56.272Z,31.30
2023-05-09T13:47:00.153Z,31.31
2023-05-09T13:48:02.074Z,31.19